sensor_id;sensor_type;location;lat;lon;timestamp;pressure;altitude;pressure_sealevel;temperature
51561;BMP280;37654;51.262;17.058;2022-12-10T00:02:02;98570.66;;;0.87
51561;BMP280;37654;51.262;17.058;2022-12-10T00:04:28;98561.31;;;0.86
51561;BMP280;37654;51.262;17.058;2022-12-10T00:06:53;98570.69;;;0.85
51561;BMP280;37654;51.262;17.058;2022-12-10T00:09:19;98576.63;;;0.83
51561;BMP280;37654;51.262;17.058;2022-12-10T00:11:45;98570.66;;;0.81
51561;BMP280;37654;51.262;17.058;2022-12-10T00:14:12;98549.41;;;0.83
51561;BMP280;37654;51.262;17.058;2022-12-10T00:16:37;98560.47;;;0.81
51561;BMP280;37654;51.262;17.058;2022-12-10T00:19:04;98564.75;;;0.82
51561;BMP280;37654;51.262;17.058;2022-12-10T00:21:31;98569.81;;;0.83
51561;BMP280;37654;51.262;17.058;2022-12-10T00:23:57;98574.91;;;0.81
51561;BMP280;37654;51.262;17.058;2022-12-10T00:26:36;98574.06;;;0.80
51561;BMP280;37654;51.262;17.058;2022-12-10T00:29:05;98568.13;;;0.84
51561;BMP280;37654;51.262;17.058;2022-12-10T00:31:32;98564.72;;;0.78
51561;BMP280;37654;51.262;17.058;2022-12-10T00:34:01;98565.59;;;0.78
51561;BMP280;37654;51.262;17.058;2022-12-10T00:36:30;98570.66;;;0.81
51561;BMP280;37654;51.262;17.058;2022-12-10T00:38:56;98572.38;;;0.73
51561;BMP280;37654;51.262;17.058;2022-12-10T00:41:22;98575.75;;;0.81
51561;BMP280;37654;51.262;17.058;2022-12-10T00:43:48;98574.06;;;0.87
51561;BMP280;37654;51.262;17.058;2022-12-10T00:46:15;98569.81;;;0.85
51561;BMP280;37654;51.262;17.058;2022-12-10T00:48:42;98562.16;;;0.85
51561;BMP280;37654;51.262;17.058;2022-12-10T00:51:27;98570.66;;;0.87
51561;BMP280;37654;51.262;17.058;2022-12-10T00:53:54;98565.56;;;0.81
51561;BMP280;37654;51.262;17.058;2022-12-10T00:56:21;98574.06;;;0.83
51561;BMP280;37654;51.262;17.058;2022-12-10T00:58:48;98570.66;;;0.81
51561;BMP280;37654;51.262;17.058;2022-12-10T01:01:27;98563.03;;;0.75
51561;BMP280;37654;51.262;17.058;2022-12-10T01:03:55;98570.69;;;0.75
51561;BMP280;37654;51.262;17.058;2022-12-10T01:06:29;98568.97;;;0.83
51561;BMP280;37654;51.262;17.058;2022-12-10T01:08:59;98572.38;;;0.81
51561;BMP280;37654;51.262;17.058;2022-12-10T01:11:28;98570.69;;;0.80
51561;BMP280;37654;51.262;17.058;2022-12-10T01:13:53;98569.81;;;0.81
51561;BMP280;37654;51.262;17.058;2022-12-10T01:16:21;98568.13;;;0.81
51561;BMP280;37654;51.262;17.058;2022-12-10T01:18:47;98556.22;;;0.83
51561;BMP280;37654;51.262;17.058;2022-12-10T01:21:15;98564.72;;;0.78
51561;BMP280;37654;51.262;17.058;2022-12-10T01:23:43;98570.69;;;0.75
51561;BMP280;37654;51.262;17.058;2022-12-10T01:26:13;98573.22;;;0.82
51561;BMP280;37654;51.262;17.058;2022-12-10T01:28:40;98579.16;;;0.77
51561;BMP280;37654;51.262;17.058;2022-12-10T01:31:10;98570.69;;;0.80
51561;BMP280;37654;51.262;17.058;2022-12-10T01:33:36;98572.38;;;0.81
51561;BMP280;37654;51.262;17.058;2022-12-10T01:36:08;98576.63;;;0.80
51561;BMP280;37654;51.262;17.058;2022-12-10T01:38:34;98585.13;;;0.81
51561;BMP280;37654;51.262;17.058;2022-12-10T01:41:00;98575.75;;;0.81
51561;BMP280;37654;51.262;17.058;2022-12-10T01:43:26;98585.13;;;0.79
51561;BMP280;37654;51.262;17.058;2022-12-10T01:45:52;98580.03;;;0.79
51561;BMP280;37654;51.262;17.058;2022-12-10T01:48:19;98580.88;;;0.81
51561;BMP280;37654;51.262;17.058;2022-12-10T01:50:44;98587.69;;;0.82
51561;BMP280;37654;51.262;17.058;2022-12-10T01:53:12;98582.56;;;0.83
51561;BMP280;37654;51.262;17.058;2022-12-10T01:55:48;98586.81;;;0.83
51561;BMP280;37654;51.262;17.058;2022-12-10T01:58:16;98582.59;;;0.82
51561;BMP280;37654;51.262;17.058;2022-12-10T02:00:57;98584.28;;;0.83
51561;BMP280;37654;51.262;17.058;2022-12-10T02:06:12;98574.06;;;0.77
51561;BMP280;37654;51.262;17.058;2022-12-10T02:08:50;98577.47;;;0.79
51561;BMP280;37654;51.262;17.058;2022-12-10T02:11:23;98583.44;;;0.82
51561;BMP280;37654;51.262;17.058;2022-12-10T02:13:57;98573.22;;;0.77
51561;BMP280;37654;51.262;17.058;2022-12-10T02:21:43;98571.53;;;0.74
51561;BMP280;37654;51.262;17.058;2022-12-10T02:24:14;98568.97;;;0.77
51561;BMP280;37654;51.262;17.058;2022-12-10T02:27:25;98579.16;;;0.77
51561;BMP280;37654;51.262;17.058;2022-12-10T02:29:30;98575.75;;;0.81
51561;BMP280;37654;51.262;17.058;2022-12-10T02:32:07;98576.63;;;0.79
51561;BMP280;37654;51.262;17.058;2022-12-10T02:34:40;98565.56;;;0.81
51561;BMP280;37654;51.262;17.058;2022-12-10T02:37:20;98570.66;;;0.81
51561;BMP280;37654;51.262;17.058;2022-12-10T02:39:49;98582.59;;;0.79
51561;BMP280;37654;51.262;17.058;2022-12-10T02:42:16;98580.03;;;0.82
51561;BMP280;37654;51.262;17.058;2022-12-10T02:44:44;98580.03;;;0.83
51561;BMP280;37654;51.262;17.058;2022-12-10T02:47:11;98584.28;;;0.83
51561;BMP280;37654;51.262;17.058;2022-12-10T02:49:39;98579.16;;;0.80
51561;BMP280;37654;51.262;17.058;2022-12-10T02:52:10;98579.16;;;0.77
51561;BMP280;37654;51.262;17.058;2022-12-10T02:54:42;98582.59;;;0.82
51561;BMP280;37654;51.262;17.058;2022-12-10T02:57:31;98585.97;;;0.87
51561;BMP280;37654;51.262;17.058;2022-12-10T03:00:14;98585.97;;;0.87
51561;BMP280;37654;51.262;17.058;2022-12-10T03:05:32;98591.94;;;0.76
51561;BMP280;37654;51.262;17.058;2022-12-10T03:13:15;98603.81;;;0.71
51561;BMP280;37654;51.262;17.058;2022-12-10T03:15:42;98607.22;;;0.73
51561;BMP280;37654;51.262;17.058;2022-12-10T03:18:09;98614.88;;;0.77
51561;BMP280;37654;51.262;17.058;2022-12-10T03:20:41;98613.19;;;0.79
51561;BMP280;37654;51.262;17.058;2022-12-10T03:23:13;98616.56;;;0.81
51561;BMP280;37654;51.262;17.058;2022-12-10T03:25:39;98604.69;;;0.82
51561;BMP280;37654;51.262;17.058;2022-12-10T03:28:06;98608.94;;;0.80
51561;BMP280;37654;51.262;17.058;2022-12-10T03:30:32;98595.31;;;0.73
51561;BMP280;37654;51.262;17.058;2022-12-10T03:32:59;98603.84;;;0.75
51561;BMP280;37654;51.262;17.058;2022-12-10T03:35:25;98602.13;;;0.73
51561;BMP280;37654;51.262;17.058;2022-12-10T03:37:52;98609.75;;;0.74
51561;BMP280;37654;51.262;17.058;2022-12-10T03:40:21;98609.78;;;0.73
51561;BMP280;37654;51.262;17.058;2022-12-10T03:42:47;98611.47;;;0.74
51561;BMP280;37654;51.262;17.058;2022-12-10T03:45:13;98608.09;;;0.75
51561;BMP280;37654;51.262;17.058;2022-12-10T03:47:39;98607.22;;;0.77
51561;BMP280;37654;51.262;17.058;2022-12-10T03:50:05;98605.53;;;0.67
51561;BMP280;37654;51.262;17.058;2022-12-10T03:52:31;98609.78;;;0.70
51561;BMP280;37654;51.262;17.058;2022-12-10T03:54:57;98600.44;;;0.73
51561;BMP280;37654;51.262;17.058;2022-12-10T03:57:22;98601.28;;;0.69
51561;BMP280;37654;51.262;17.058;2022-12-10T03:59:48;98604.66;;;0.74
51561;BMP280;37654;51.262;17.058;2022-12-10T04:02:13;98608.91;;;0.71
51561;BMP280;37654;51.262;17.058;2022-12-10T04:04:38;98608.94;;;0.66
51561;BMP280;37654;51.262;17.058;2022-12-10T04:07:04;98606.38;;;0.72
51561;BMP280;37654;51.262;17.058;2022-12-10T04:09:29;98611.50;;;0.78
51561;BMP280;37654;51.262;17.058;2022-12-10T04:11:59;98614.03;;;0.77
51561;BMP280;37654;51.262;17.058;2022-12-10T04:14:25;98619.13;;;0.74
51561;BMP280;37654;51.262;17.058;2022-12-10T04:17:04;98630.16;;;0.74
51561;BMP280;37654;51.262;17.058;2022-12-10T04:19:29;98619.97;;;0.74
51561;BMP280;37654;51.262;17.058;2022-12-10T04:21:55;98620.81;;;0.79
51561;BMP280;37654;51.262;17.058;2022-12-10T04:24:35;98625.09;;;0.71
51561;BMP280;37654;51.262;17.058;2022-12-10T04:27:25;98631.88;;;0.68
51561;BMP280;37654;51.262;17.058;2022-12-10T04:29:52;98634.44;;;0.69
51561;BMP280;37654;51.262;17.058;2022-12-10T04:32:18;98636.13;;;0.70
51561;BMP280;37654;51.262;17.058;2022-12-10T04:34:43;98636.97;;;0.72
51561;BMP280;37654;51.262;17.058;2022-12-10T04:37:09;98641.22;;;0.69
51561;BMP280;37654;51.262;17.058;2022-12-10T04:39:36;98636.97;;;0.75
51561;BMP280;37654;51.262;17.058;2022-12-10T04:42:03;98641.22;;;0.75
51561;BMP280;37654;51.262;17.058;2022-12-10T04:44:29;98634.41;;;0.74
51561;BMP280;37654;51.262;17.058;2022-12-10T04:46:55;98642.91;;;0.70
51561;BMP280;37654;51.262;17.058;2022-12-10T04:49:20;98637.84;;;0.71
51561;BMP280;37654;51.262;17.058;2022-12-10T04:51:45;98641.22;;;0.70
51561;BMP280;37654;51.262;17.058;2022-12-10T04:54:12;98636.97;;;0.72
51561;BMP280;37654;51.262;17.058;2022-12-10T04:56:38;98644.59;;;0.63
51561;BMP280;37654;51.262;17.058;2022-12-10T04:59:04;98639.53;;;0.62
51561;BMP280;37654;51.262;17.058;2022-12-10T05:01:30;98641.22;;;0.61
51561;BMP280;37654;51.262;17.058;2022-12-10T05:04:01;98641.22;;;0.61
51561;BMP280;37654;51.262;17.058;2022-12-10T05:06:27;98644.63;;;0.65
51561;BMP280;37654;51.262;17.058;2022-12-10T05:08:52;98649.72;;;0.68
51561;BMP280;37654;51.262;17.058;2022-12-10T05:11:20;98644.63;;;0.62
51561;BMP280;37654;51.262;17.058;2022-12-10T05:13:46;98645.47;;;0.62
51561;BMP280;37654;51.262;17.058;2022-12-10T05:16:16;98642.91;;;0.56
51561;BMP280;37654;51.262;17.058;2022-12-10T05:18:41;98642.06;;;0.57
51561;BMP280;37654;51.262;17.058;2022-12-10T05:21:10;98647.16;;;0.54
51561;BMP280;37654;51.262;17.058;2022-12-10T05:23:37;98639.53;;;0.54
51561;BMP280;37654;51.262;17.058;2022-12-10T05:26:29;98651.44;;;0.54
51561;BMP280;37654;51.262;17.058;2022-12-10T05:28:55;98643.75;;;0.53
51561;BMP280;37654;51.262;17.058;2022-12-10T05:31:27;98648.03;;;0.55
51561;BMP280;37654;51.262;17.058;2022-12-10T05:33:54;98644.63;;;0.52
51561;BMP280;37654;51.262;17.058;2022-12-10T05:36:22;98654.78;;;0.53
51561;BMP280;37654;51.262;17.058;2022-12-10T05:38:48;98653.97;;;0.51
51561;BMP280;37654;51.262;17.058;2022-12-10T05:41:16;98641.22;;;0.51
51561;BMP280;37654;51.262;17.058;2022-12-10T05:43:43;98648.84;;;0.53
51561;BMP280;37654;51.262;17.058;2022-12-10T05:46:29;98659.91;;;0.54
51561;BMP280;37654;51.262;17.058;2022-12-10T05:48:55;98666.72;;;0.51
51561;BMP280;37654;51.262;17.058;2022-12-10T05:51:24;98665.88;;;0.58
51561;BMP280;37654;51.262;17.058;2022-12-10T05:53:51;98665.00;;;0.56
51561;BMP280;37654;51.262;17.058;2022-12-10T05:56:19;98673.50;;;0.59
51561;BMP280;37654;51.262;17.058;2022-12-10T05:58:47;98672.66;;;0.57
51561;BMP280;37654;51.262;17.058;2022-12-10T06:01:18;98672.66;;;0.57
51561;BMP280;37654;51.262;17.058;2022-12-10T06:03:44;98667.56;;;0.54
51561;BMP280;37654;51.262;17.058;2022-12-10T06:06:11;98656.50;;;0.51
51561;BMP280;37654;51.262;17.058;2022-12-10T06:08:36;98652.28;;;0.54
51561;BMP280;37654;51.262;17.058;2022-12-10T06:11:08;98653.97;;;0.55
51561;BMP280;37654;51.262;17.058;2022-12-10T06:13:33;98656.50;;;0.53
51561;BMP280;37654;51.262;17.058;2022-12-10T06:15:59;98653.97;;;0.54
51561;BMP280;37654;51.262;17.058;2022-12-10T06:18:25;98660.78;;;0.61
51561;BMP280;37654;51.262;17.058;2022-12-10T06:20:50;98664.16;;;0.58
51561;BMP280;37654;51.262;17.058;2022-12-10T06:23:16;98667.56;;;0.59
51561;BMP280;37654;51.262;17.058;2022-12-10T06:25:41;98667.56;;;0.57
51561;BMP280;37654;51.262;17.058;2022-12-10T06:28:07;98674.34;;;0.60
51561;BMP280;37654;51.262;17.058;2022-12-10T06:30:33;98679.44;;;0.55
51561;BMP280;37654;51.262;17.058;2022-12-10T06:32:59;98672.66;;;0.54
51561;BMP280;37654;51.262;17.058;2022-12-10T06:35:25;98676.91;;;0.54
51561;BMP280;37654;51.262;17.058;2022-12-10T06:37:51;98672.63;;;0.49
51561;BMP280;37654;51.262;17.058;2022-12-10T06:40:16;98668.41;;;0.51
51561;BMP280;37654;51.262;17.058;2022-12-10T06:42:42;98669.25;;;0.50
51561;BMP280;37654;51.262;17.058;2022-12-10T06:45:08;98669.25;;;0.44
51561;BMP280;37654;51.262;17.058;2022-12-10T06:47:33;98662.44;;;0.44
51561;BMP280;37654;51.262;17.058;2022-12-10T06:49:59;98670.09;;;0.43
51561;BMP280;37654;51.262;17.058;2022-12-10T06:52:24;98655.63;;;0.39
51561;BMP280;37654;51.262;17.058;2022-12-10T06:54:50;98669.22;;;0.38
51561;BMP280;37654;51.262;17.058;2022-12-10T06:57:15;98678.56;;;0.42
51561;BMP280;37654;51.262;17.058;2022-12-10T06:59:40;98671.78;;;0.38
51561;BMP280;37654;51.262;17.058;2022-12-10T07:02:08;98681.13;;;0.39
51561;BMP280;37654;51.262;17.058;2022-12-10T07:04:34;98683.69;;;0.43
51561;BMP280;37654;51.262;17.058;2022-12-10T07:06:59;98682.81;;;0.46
51561;BMP280;37654;51.262;17.058;2022-12-10T07:09:24;98673.50;;;0.40
51561;BMP280;37654;51.262;17.058;2022-12-10T07:11:50;98688.75;;;0.39
51561;BMP280;37654;51.262;17.058;2022-12-10T07:14:17;98689.63;;;0.32
51561;BMP280;37654;51.262;17.058;2022-12-10T07:16:42;98689.63;;;0.33
51561;BMP280;37654;51.262;17.058;2022-12-10T07:19:09;98690.44;;;0.35
51561;BMP280;37654;51.262;17.058;2022-12-10T07:21:36;98693.88;;;0.40
51561;BMP280;37654;51.262;17.058;2022-12-10T07:24:09;98692.19;;;0.44
51561;BMP280;37654;51.262;17.058;2022-12-10T07:26:37;98699.81;;;0.38
51561;BMP280;37654;51.262;17.058;2022-12-10T07:29:04;98681.97;;;0.26
51561;BMP280;37654;51.262;17.058;2022-12-10T07:31:30;98697.25;;;0.33
51561;BMP280;37654;51.262;17.058;2022-12-10T07:33:57;98698.97;;;0.33
51561;BMP280;37654;51.262;17.058;2022-12-10T07:36:24;98701.50;;;0.33
51561;BMP280;37654;51.262;17.058;2022-12-10T07:38:53;98699.78;;;0.35
51561;BMP280;37654;51.262;17.058;2022-12-10T07:41:19;98701.53;;;0.43
51561;BMP280;37654;51.262;17.058;2022-12-10T07:43:45;98699.81;;;0.38
51561;BMP280;37654;51.262;17.058;2022-12-10T07:46:23;98706.63;;;0.45
51561;BMP280;37654;51.262;17.058;2022-12-10T07:48:50;98701.53;;;0.40
51561;BMP280;37654;51.262;17.058;2022-12-10T07:51:18;98704.06;;;0.36
51561;BMP280;37654;51.262;17.058;2022-12-10T07:53:44;98698.94;;;0.31
51561;BMP280;37654;51.262;17.058;2022-12-10T07:56:10;98698.09;;;0.34
51561;BMP280;37654;51.262;17.058;2022-12-10T07:58:36;98700.66;;;0.34
51561;BMP280;37654;51.262;17.058;2022-12-10T08:01:10;98693.88;;;0.40
51561;BMP280;37654;51.262;17.058;2022-12-10T08:03:36;98702.38;;;0.44
51561;BMP280;37654;51.262;17.058;2022-12-10T08:06:03;98703.22;;;0.41
51561;BMP280;37654;51.262;17.058;2022-12-10T08:08:29;98706.59;;;0.42
51561;BMP280;37654;51.262;17.058;2022-12-10T08:10:54;98706.63;;;0.45
51561;BMP280;37654;51.262;17.058;2022-12-10T08:13:20;98709.19;;;0.43
51561;BMP280;37654;51.262;17.058;2022-12-10T08:15:45;98706.63;;;0.48
51561;BMP280;37654;51.262;17.058;2022-12-10T08:18:10;98721.91;;;0.48
51561;BMP280;37654;51.262;17.058;2022-12-10T08:20:36;98726.16;;;0.52
51561;BMP280;37654;51.262;17.058;2022-12-10T08:23:01;98727.84;;;0.48
51561;BMP280;37654;51.262;17.058;2022-12-10T08:25:27;98727.84;;;0.48
51561;BMP280;37654;51.262;17.058;2022-12-10T08:27:52;98723.63;;;0.56
51561;BMP280;37654;51.262;17.058;2022-12-10T08:30:18;98715.97;;;0.59
51561;BMP280;37654;51.262;17.058;2022-12-10T08:32:43;98724.47;;;0.59
51561;BMP280;37654;51.262;17.058;2022-12-10T08:35:09;98724.47;;;0.59
51561;BMP280;37654;51.262;17.058;2022-12-10T08:37:34;98725.31;;;0.63
51561;BMP280;37654;51.262;17.058;2022-12-10T08:39:59;98729.59;;;0.61
51561;BMP280;37654;51.262;17.058;2022-12-10T08:42:25;98723.63;;;0.63
51561;BMP280;37654;51.262;17.058;2022-12-10T08:44:50;98727.88;;;0.63
51561;BMP280;37654;51.262;17.058;2022-12-10T08:47:16;98727.91;;;0.64
51561;BMP280;37654;51.262;17.058;2022-12-10T08:49:41;98735.53;;;0.61
51561;BMP280;37654;51.262;17.058;2022-12-10T08:52:07;98744.88;;;0.58
51561;BMP280;37654;51.262;17.058;2022-12-10T08:54:32;98737.22;;;0.58
51561;BMP280;37654;51.262;17.058;2022-12-10T08:56:58;98740.63;;;0.55
51561;BMP280;37654;51.262;17.058;2022-12-10T08:59:23;98738.94;;;0.57
51561;BMP280;37654;51.262;17.058;2022-12-10T09:01:51;98741.47;;;0.54
51561;BMP280;37654;51.262;17.058;2022-12-10T09:04:16;98738.09;;;0.57
51561;BMP280;37654;51.262;17.058;2022-12-10T09:06:49;98735.53;;;0.61
51561;BMP280;37654;51.262;17.058;2022-12-10T09:09:15;98733.84;;;0.69
51561;BMP280;37654;51.262;17.058;2022-12-10T09:11:41;98738.97;;;0.75
51561;BMP280;37654;51.262;17.058;2022-12-10T09:14:07;98737.25;;;0.77
51561;BMP280;37654;51.262;17.058;2022-12-10T09:16:35;98737.25;;;0.77
51561;BMP280;37654;51.262;17.058;2022-12-10T09:19:01;98731.28;;;0.77
51561;BMP280;37654;51.262;17.058;2022-12-10T09:21:27;98730.47;;;0.79
51561;BMP280;37654;51.262;17.058;2022-12-10T09:23:52;98734.72;;;0.79
51561;BMP280;37654;51.262;17.058;2022-12-10T09:26:19;98729.59;;;0.80
51561;BMP280;37654;51.262;17.058;2022-12-10T09:28:45;98718.53;;;0.81
51561;BMP280;37654;51.262;17.058;2022-12-10T09:31:12;98720.25;;;0.83
51561;BMP280;37654;51.262;17.058;2022-12-10T09:33:38;98725.34;;;0.88
51561;BMP280;37654;51.262;17.058;2022-12-10T09:36:05;98714.31;;;0.87
51561;BMP280;37654;51.262;17.058;2022-12-10T09:38:34;98726.19;;;0.88
51561;BMP280;37654;51.262;17.058;2022-12-10T09:41:02;98724.53;;;0.89
51561;BMP280;37654;51.262;17.058;2022-12-10T09:43:52;98727.91;;;1.04
51561;BMP280;37654;51.262;17.058;2022-12-10T09:51:59;98727.91;;;0.89
51561;BMP280;37654;51.262;17.058;2022-12-10T09:54:48;98714.28;;;0.95
51561;BMP280;37654;51.262;17.058;2022-12-10T09:57:35;98720.25;;;1.08
51561;BMP280;37654;51.262;17.058;2022-12-10T10:00:29;98718.56;;;1.08
51561;BMP280;37654;51.262;17.058;2022-12-10T10:02:52;98710.06;;;1.10
51561;BMP280;37654;51.262;17.058;2022-12-10T10:05:26;98714.31;;;1.14
51561;BMP280;37654;51.262;17.058;2022-12-10T10:07:55;98706.66;;;1.18
51561;BMP280;37654;51.262;17.058;2022-12-10T10:10:32;98698.97;;;1.23
51561;BMP280;37654;51.262;17.058;2022-12-10T10:15:33;98695.59;;;1.28
51561;BMP280;37654;51.262;17.058;2022-12-10T10:18:11;98687.06;;;1.20
51561;BMP280;37654;51.262;17.058;2022-12-10T10:20:38;98684.53;;;1.28
51561;BMP280;37654;51.262;17.058;2022-12-10T10:23:03;98689.63;;;1.26
51561;BMP280;37654;51.262;17.058;2022-12-10T10:25:29;98693.03;;;1.16
51561;BMP280;37654;51.262;17.058;2022-12-10T10:27:55;98690.47;;;1.06
51561;BMP280;37654;51.262;17.058;2022-12-10T10:30:23;98686.22;;;1.18
51561;BMP280;37654;51.262;17.058;2022-12-10T10:32:54;98678.59;;;1.24
51561;BMP280;37654;51.262;17.058;2022-12-10T10:35:32;98676.84;;;1.32
51561;BMP280;37654;51.262;17.058;2022-12-10T10:38:05;98678.53;;;1.43
51561;BMP280;37654;51.262;17.058;2022-12-10T10:40:39;98679.41;;;1.35
51561;BMP280;37654;51.262;17.058;2022-12-10T10:43:05;98677.66;;;1.41
51561;BMP280;37654;51.262;17.058;2022-12-10T10:45:37;98687.88;;;1.49
51561;BMP280;37654;51.262;17.058;2022-12-10T10:50:48;98685.34;;;1.46
51561;BMP280;37654;51.262;17.058;2022-12-10T10:53:29;98688.72;;;1.49
51561;BMP280;37654;51.262;17.058;2022-12-10T10:55:59;98676.84;;;1.42
51561;BMP280;37654;51.262;17.058;2022-12-10T10:58:26;98667.50;;;1.28
51561;BMP280;37654;51.262;17.058;2022-12-10T11:03:29;98665.78;;;1.27
51561;BMP280;37654;51.262;17.058;2022-12-10T11:05:56;98663.22;;;1.35
51561;BMP280;37654;51.262;17.058;2022-12-10T11:08:24;98670.88;;;1.27
51561;BMP280;37654;51.262;17.058;2022-12-10T11:11:12;98663.25;;;1.27
51561;BMP280;37654;51.262;17.058;2022-12-10T11:13:39;98674.34;;;1.14
51561;BMP280;37654;51.262;17.058;2022-12-10T11:16:22;98678.56;;;1.23
51561;BMP280;37654;51.262;17.058;2022-12-10T11:18:59;98674.31;;;1.29
51561;BMP280;37654;51.262;17.058;2022-12-10T11:21:29;98691.31;;;1.36
51561;BMP280;37654;51.262;17.058;2022-12-10T11:23:55;98683.63;;;1.37
51561;BMP280;37654;51.262;17.058;2022-12-10T11:35:01;98685.38;;;1.18
51561;BMP280;37654;51.262;17.058;2022-12-10T11:37:29;98699.84;;;1.06
51561;BMP280;37654;51.262;17.058;2022-12-10T11:45:20;98706.63;;;1.15
51561;BMP280;37654;51.262;17.058;2022-12-10T11:47:50;98708.34;;;1.10
51561;BMP280;37654;51.262;17.058;2022-12-10T11:50:41;98703.25;;;1.09
51561;BMP280;37654;51.262;17.058;2022-12-10T11:53:15;98710.91;;;0.94
51561;BMP280;37654;51.262;17.058;2022-12-10T11:58:36;98710.03;;;1.06
51561;BMP280;37654;51.262;17.058;2022-12-10T12:12:36;98723.66;;;1.08
51561;BMP280;37654;51.262;17.058;2022-12-10T12:17:47;98707.50;;;1.06
51561;BMP280;37654;51.262;17.058;2022-12-10T12:20:25;98702.41;;;1.04
51561;BMP280;37654;51.262;17.058;2022-12-10T12:23:02;98702.41;;;1.01
51561;BMP280;37654;51.262;17.058;2022-12-10T12:25:39;98700.72;;;1.00
51561;BMP280;37654;51.262;17.058;2022-12-10T12:28:28;98703.25;;;0.99
51561;BMP280;37654;51.262;17.058;2022-12-10T12:31:01;98699.84;;;0.98
51561;BMP280;37654;51.262;17.058;2022-12-10T12:33:34;98706.66;;;1.04
51561;BMP280;37654;51.262;17.058;2022-12-10T12:36:22;98706.66;;;0.98
51561;BMP280;37654;51.262;17.058;2022-12-10T12:38:54;98700.72;;;0.97
51561;BMP280;37654;51.262;17.058;2022-12-10T12:41:35;98690.50;;;0.88
51561;BMP280;37654;51.262;17.058;2022-12-10T12:44:15;98681.16;;;0.83
51561;BMP280;37654;51.262;17.058;2022-12-10T12:46:48;98690.50;;;0.81
51561;BMP280;37654;51.262;17.058;2022-12-10T12:49:29;98698.16;;;0.87
51561;BMP280;37654;51.262;17.058;2022-12-10T12:54:49;98680.31;;;0.84
51561;BMP280;37654;51.262;17.058;2022-12-10T12:57:25;98689.66;;;0.89
51561;BMP280;37654;51.262;17.058;2022-12-10T13:00:01;98693.06;;;0.85
51561;BMP280;37654;51.262;17.058;2022-12-10T13:02:44;98683.69;;;0.92
51561;BMP280;37654;51.262;17.058;2022-12-10T13:05:21;98697.31;;;0.97
51561;BMP280;37654;51.262;17.058;2022-12-10T13:11:15;98699.88;;;0.97
51561;BMP280;37654;51.262;17.058;2022-12-10T13:14:01;98693.06;;;0.93
51561;BMP280;37654;51.262;17.058;2022-12-10T13:21:57;98690.50;;;0.93
51561;BMP280;37654;51.262;17.058;2022-12-10T13:29:57;98702.41;;;0.92
51561;BMP280;37654;51.262;17.058;2022-12-10T13:43:35;98710.06;;;0.82
51561;BMP280;37654;51.262;17.058;2022-12-10T13:46:26;98705.78;;;0.74
51561;BMP280;37654;51.262;17.058;2022-12-10T13:49:03;98711.75;;;0.68
51561;BMP280;37654;51.262;17.058;2022-12-10T13:51:39;98712.59;;;0.67
51561;BMP280;37654;51.262;17.058;2022-12-10T13:54:21;98715.16;;;0.73
51561;BMP280;37654;51.262;17.058;2022-12-10T13:57:07;98710.91;;;0.78
51561;BMP280;37654;51.262;17.058;2022-12-10T14:05:46;98720.28;;;0.82
51561;BMP280;37654;51.262;17.058;2022-12-10T14:08:02;98716.00;;;0.77
51561;BMP280;37654;51.262;17.058;2022-12-10T14:10:34;98716.03;;;0.78
51561;BMP280;37654;51.262;17.058;2022-12-10T14:13:04;98717.72;;;0.75
51561;BMP280;37654;51.262;17.058;2022-12-10T14:15:31;98723.66;;;0.77
51561;BMP280;37654;51.262;17.058;2022-12-10T14:18:00;98711.75;;;0.80
51561;BMP280;37654;51.262;17.058;2022-12-10T14:20:29;98722.81;;;0.83
51561;BMP280;37654;51.262;17.058;2022-12-10T14:22:56;98721.94;;;0.77
51561;BMP280;37654;51.262;17.058;2022-12-10T14:25:44;98728.75;;;0.60
51561;BMP280;37654;51.262;17.058;2022-12-10T14:28:12;98725.34;;;0.57
51561;BMP280;37654;51.262;17.058;2022-12-10T14:30:42;98730.44;;;0.61
51561;BMP280;37654;51.262;17.058;2022-12-10T14:33:11;98730.44;;;0.64
51561;BMP280;37654;51.262;17.058;2022-12-10T14:35:38;98731.28;;;0.63
51561;BMP280;37654;51.262;17.058;2022-12-10T14:38:04;98728.75;;;0.57
51561;BMP280;37654;51.262;17.058;2022-12-10T14:40:38;98728.75;;;0.57
51561;BMP280;37654;51.262;17.058;2022-12-10T14:43:06;98732.13;;;0.59
51561;BMP280;37654;51.262;17.058;2022-12-10T14:45:54;98740.63;;;0.60
51561;BMP280;37654;51.262;17.058;2022-12-10T14:48:21;98745.75;;;0.64
51561;BMP280;37654;51.262;17.058;2022-12-10T14:50:47;98749.13;;;0.63
51561;BMP280;37654;51.262;17.058;2022-12-10T14:53:18;98747.44;;;0.64
51561;BMP280;37654;51.262;17.058;2022-12-10T14:55:49;98746.56;;;0.62
51561;BMP280;37654;51.262;17.058;2022-12-10T14:58:25;98750.84;;;0.61
51561;BMP280;37654;51.262;17.058;2022-12-10T15:00:53;98750.84;;;0.61
51561;BMP280;37654;51.262;17.058;2022-12-10T15:03:30;98758.44;;;0.51
51561;BMP280;37654;51.262;17.058;2022-12-10T15:05:59;98754.19;;;0.52
51561;BMP280;37654;51.262;17.058;2022-12-10T15:08:26;98752.50;;;0.56
51561;BMP280;37654;51.262;17.058;2022-12-10T15:10:55;98756.75;;;0.59
51561;BMP280;37654;51.262;17.058;2022-12-10T15:13:23;98754.25;;;0.60
51561;BMP280;37654;51.262;17.058;2022-12-10T15:15:51;98755.09;;;0.65
51561;BMP280;37654;51.262;17.058;2022-12-10T15:18:27;98757.63;;;0.65
51561;BMP280;37654;51.262;17.058;2022-12-10T15:20:54;98772.09;;;0.60
51561;BMP280;37654;51.262;17.058;2022-12-10T15:28:33;98760.19;;;0.65
51561;BMP280;37654;51.262;17.058;2022-12-10T15:33:42;98759.31;;;0.57
51561;BMP280;37654;51.262;17.058;2022-12-10T15:36:17;98767.81;;;0.55
51561;BMP280;37654;51.262;17.058;2022-12-10T15:38:45;98761.00;;;0.55
51561;BMP280;37654;51.262;17.058;2022-12-10T15:44:34;98765.25;;;0.58
51561;BMP280;37654;51.262;17.058;2022-12-10T15:47:10;98766.97;;;0.59
51561;BMP280;37654;51.262;17.058;2022-12-10T15:49:38;98766.13;;;0.58
51561;BMP280;37654;51.262;17.058;2022-12-10T15:52:04;98768.66;;;0.60
51561;BMP280;37654;51.262;17.058;2022-12-10T15:54:36;98776.31;;;0.63
51561;BMP280;37654;51.262;17.058;2022-12-10T15:57:16;98776.28;;;0.55
51561;BMP280;37654;51.262;17.058;2022-12-10T15:59:44;98772.91;;;0.59
51561;BMP280;37654;51.262;17.058;2022-12-10T16:04:50;98765.25;;;0.55
51561;BMP280;37654;51.262;17.058;2022-12-10T16:07:16;98763.56;;;0.61
51561;BMP280;37654;51.262;17.058;2022-12-10T16:09:43;98772.09;;;0.60
51561;BMP280;37654;51.262;17.058;2022-12-10T16:12:16;98763.56;;;0.55